Yemassee, SC

12:19 PM EDT on April 25, 2015 (GMT -0400)
Point South KOA | | Change Station
CLOSE
Current Station
Personal Weather Station
Location: Yemassee, SC
Elevation: 14 ft
Nearby Weather Stations

Elev 14 ft 32.62 °N, 80.88 °W | Updated 13 seconds ago

Rain
Rain
66.0 °F
Feels Like 66.0 °F
N
0.0
Wind Variable Wind from South
Gusts 0.0 mph

Today
High -- | Low -- °F
--% Chance of Precip.
Yesterday
High -- | Low -- °F
Precip. -- in
6:42 AM 7:59 PM
Waxing Crescent, 47% visible
Pressure 29.94 in
Visibility 0.8 miles
Clouds Few 3200 ft
Mostly Cloudy 4300 ft
Overcast 6000 ft
Dew Point 66 °F
Humidity 99%
Rainfall 0.72 in
Snow Depth Not available.
UV 0.0 out of 12
Pollen 8.40 out of 12
Air Quality Not available.
Flu Activity Local Activity
SPECI KNBC 251604Z AUTO 16003KT 3/4SM +RA BR FEW032 BKN043 OVC060 19/19 A2994 RMK AO2 TSE04 P0005 T01940189

More Conditions Fewer Conditions

Pressure 29.94 in
Visibility 0.8 miles
Clouds Few 3200 ft
Mostly Cloudy 4300 ft
Overcast 6000 ft
Dew Point 66 °F
Humidity 99%
Rainfall 0.72 in
Snow Depth Not available.
UV 0.0 out of 12
Pollen 8.40 out of 12
Air Quality Not available.
Flu Activity Local Activity
SPECI KNBC 251604Z AUTO 16003KT 3/4SM +RA BR FEW032 BKN043 OVC060 19/19 A2994 RMK AO2 TSE04 P0005 T01940189

More Conditions Fewer Conditions

10-Day Weather Forecast

Almanac

Astronomy

Apr. 25, 2015 Rise Set
Actual Time
Civil Twilight
Nautical Twilight
Astronomical Twilight
Moon
Length of Visible Light
Length of Day
Tomorrow will be .
, % of the Moon is Illuminated

Today's Extremes

State Highs State Lows

Community

WunderPhotos

Upload Photos

1,816,731 photos uploaded!

WunderBlogs® & News

Nearby

Air Quality

  Air Quality AQ Index Pollutant
Not available.

Snow Depth

Station Depth Elevation

Earthquake Activity

City Distance Mag. Time & Date
Minimum magnitude displayed is 2.5.

Coastal Water Temperatures

Place Temperature

Stations

Nearby Weather Stations

Station Location Temp. Windchill Dew Point Humidity Wind Precip. Elev Updated Type